Time;durP1;ratioP1;P1;durP2;ratioP2;P2;SDS_P1;SDS_P2;PMS_P1;PMS_P2;Temp;Humidity;BMP_temperature;BMP_pressure;BME280_temperature;BME280_humidity;BME280_pressure;Samples;Min_cycle;Max_cycle;Signal;HPM_P1;HPM_P2
2021/11/06 00:00:52;;;;;;;56.13;29.35;;;;;;;6.32;64.42;98078.30;1844145;77;26386;-83
2021/11/06 00:03:18;;;;;;;48.63;27.98;;;;;;;6.27;64.51;98082.00;1844166;77;25880;-83
2021/11/06 00:05:45;;;;;;;43.30;24.72;;;;;;;6.25;64.71;98075.97;1841194;77;25753;-83
2021/11/06 00:08:12;;;;;;;42.17;24.25;;;;;;;6.18;64.70;98080.31;1814479;77;28332;-83
2021/11/06 00:10:39;;;;;;;35.03;20.15;;;;;;;6.19;64.74;98079.30;1843615;77;25704;-83
2021/11/06 00:13:05;;;;;;;32.65;20.62;;;;;;;6.21;64.80;98076.80;1797592;77;25633;-83
2021/11/06 00:15:32;;;;;;;38.85;21.33;;;;;;;6.23;64.81;98080.66;1825028;77;26429;-83
2021/11/06 00:17:59;;;;;;;40.48;22.58;;;;;;;6.24;64.81;98077.81;1844207;77;25698;-83
2021/11/06 00:20:25;;;;;;;28.32;17.32;;;;;;;6.26;65.01;98083.84;1844274;77;27350;-83
2021/11/06 00:22:52;;;;;;;24.60;15.60;;;;;;;6.24;64.90;98087.20;1844022;77;25676;-84
2021/11/06 00:25:19;;;;;;;23.38;15.43;;;;;;;6.26;64.87;98084.35;1844219;77;25968;-83
2021/11/06 00:27:46;;;;;;;22.75;14.50;;;;;;;6.30;64.92;98083.83;1809846;77;26341;-83
2021/11/06 00:30:14;;;;;;;25.40;15.03;;;;;;;6.36;64.81;98082.33;1797065;77;25672;-83
2021/11/06 00:32:41;;;;;;;21.62;14.28;;;;;;;6.39;64.81;98074.80;1812637;77;27995;-83
2021/11/06 00:35:09;;;;;;;21.97;13.72;;;;;;;6.44;64.72;98076.95;1836128;77;25815;-83
2021/11/06 00:37:41;;;;;;;24.70;15.23;;;;;;;6.47;64.70;98076.12;1844184;77;26470;-83
2021/11/06 00:40:11;;;;;;;27.07;16.15;;;;;;;6.46;64.57;98082.98;1811100;77;25740;-83
2021/11/06 00:42:38;;;;;;;29.32;17.50;;;;;;;6.44;64.46;98083.66;1827877;77;25695;-83
2021/11/06 00:45:07;;;;;;;30.60;18.60;;;;;;;6.43;64.39;98088.69;1827616;77;27419;-83
2021/11/06 00:47:34;;;;;;;32.90;18.37;;;;;;;6.37;64.36;98091.55;1844008;77;25705;-83
2021/11/06 00:50:01;;;;;;;30.10;17.60;;;;;;;6.32;64.35;98095.73;1844115;77;25772;-83
2021/11/06 00:52:28;;;;;;;28.75;17.60;;;;;;;6.27;64.34;98097.59;1834755;77;25776;-83
2021/11/06 00:54:55;;;;;;;35.88;18.37;;;;;;;6.23;64.41;98096.24;1820895;77;25703;-83
2021/11/06 00:57:21;;;;;;;31.93;18.65;;;;;;;6.20;64.47;98093.05;1844282;77;26635;-83
2021/11/06 00:59:48;;;;;;;33.63;19.48;;;;;;;6.16;64.56;98095.75;1844222;77;25692;-83
2021/11/06 01:02:14;;;;;;;29.30;17.45;;;;;;;6.06;64.52;98095.37;1820941;77;26318;-83
2021/11/06 01:04:41;;;;;;;27.77;18.57;;;;;;;6.02;64.70;98102.09;1844229;77;26167;-83
2021/11/06 01:07:08;;;;;;;28.23;18.10;;;;;;;5.99;64.77;98099.74;1844211;77;25798;-83
2021/11/06 01:09:35;;;;;;;30.60;18.50;;;;;;;5.98;64.88;98102.58;1844241;77;28260;-83
2021/11/06 01:12:02;;;;;;;30.82;19.20;;;;;;;5.93;64.87;98103.06;1818169;77;25661;-83
2021/11/06 01:14:28;;;;;;;34.90;19.27;;;;;;;5.80;65.02;98094.64;1804567;77;25656;-82
2021/11/06 01:16:55;;;;;;;28.90;18.37;;;;;;;5.76;65.19;98104.02;1844482;77;25640;-83
2021/11/06 01:19:22;;;;;;;39.13;20.17;;;;;;;5.74;65.31;98099.33;1844233;77;25684;-83
2021/11/06 01:21:48;;;;;;;34.40;19.27;;;;;;;5.75;65.36;98114.40;1843608;76;28046;-83
2021/11/06 01:24:15;;;;;;;33.92;20.95;;;;;;;5.70;65.34;98107.34;1821487;77;25874;-82
2021/11/06 01:26:41;;;;;;;31.52;18.92;;;;;;;5.67;65.37;98109.03;1812465;77;25892;-83
2021/11/06 01:29:08;;;;;;;31.23;19.32;;;;;;;5.62;65.38;98105.49;1808892;77;25741;-83
2021/11/06 01:31:34;;;;;;;32.20;18.70;;;;;;;5.58;65.42;98108.15;1826032;77;26216;-83
2021/11/06 01:34:01;;;;;;;32.95;19.45;;;;;;;5.50;65.47;98110.81;1843964;77;27414;-83
2021/11/06 01:36:28;;;;;;;36.40;18.92;;;;;;;5.42;65.57;98108.11;1836388;77;25727;-82
2021/11/06 01:38:54;;;;;;;33.53;19.20;;;;;;;5.35;65.64;98108.41;1819388;77;25687;-82
2021/11/06 01:41:21;;;;;;;35.20;19.45;;;;;;;5.23;65.78;98107.02;1817883;77;25675;-82
2021/11/06 01:43:48;;;;;;;28.27;17.80;;;;;;;5.13;66.02;98109.82;1814832;77;25763;-82
2021/11/06 01:46:16;;;;;;;28.42;16.40;;;;;;;5.13;66.26;98115.17;1844187;77;28384;-83
2021/11/06 01:48:43;;;;;;;27.25;15.68;;;;;;;5.18;66.35;98120.90;1844102;77;26000;-82
2021/11/06 01:51:10;;;;;;;27.05;16.77;;;;;;;5.21;66.37;98121.05;1844213;77;25794;-82
2021/11/06 01:53:37;;;;;;;29.12;19.35;;;;;;;5.18;66.40;98115.55;1810976;77;25741;-82
2021/11/06 01:56:04;;;;;;;35.95;20.55;;;;;;;5.21;66.45;98122.39;1844190;77;25668;-82
2021/11/06 01:58:32;;;;;;;32.65;18.87;;;;;;;5.24;66.43;98121.58;1820893;77;27174;-83
2021/11/06 02:01:00;;;;;;;28.30;17.10;;;;;;;5.26;66.41;98123.61;1844139;77;25746;-83
2021/11/06 02:03:28;;;;;;;29.30;17.62;;;;;;;5.29;66.43;98125.13;1842608;77;25292;-83
2021/11/06 02:05:54;;;;;;;26.50;16.45;;;;;;;5.31;66.47;98118.59;1813448;77;25843;-82
2021/11/06 02:08:21;;;;;;;31.68;18.52;;;;;;;5.30;66.45;98120.95;1844257;77;25845;-83
2021/11/06 02:10:49;;;;;;;36.70;19.57;;;;;;;5.30;66.56;98119.62;1829361;77;27336;-82
2021/11/06 02:13:16;;;;;;;31.10;19.52;;;;;;;5.32;66.62;98126.13;1820743;77;26297;-82
2021/11/06 02:15:43;;;;;;;28.15;16.65;;;;;;;5.33;66.66;98119.27;1840953;77;25713;-82
2021/11/06 02:18:10;;;;;;;31.02;17.00;;;;;;;5.32;66.75;98120.27;1817870;77;25790;-83
2021/11/06 02:20:36;;;;;;;25.50;15.68;;;;;;;5.29;66.85;98123.29;1793945;77;25711;-83
2021/11/06 02:23:04;;;;;;;27.48;16.20;;;;;;;5.29;66.88;98119.27;1793827;77;27201;-83
2021/11/06 02:25:30;;;;;;;22.85;15.68;;;;;;;5.31;66.94;98119.92;1794205;77;26080;-83
2021/11/06 02:27:57;;;;;;;29.50;16.27;;;;;;;5.33;66.93;98117.93;1825766;77;25656;-83
2021/11/06 02:30:24;;;;;;;26.30;15.65;;;;;;;5.34;67.01;98120.95;1823499;77;25702;-83
2021/11/06 02:32:52;;;;;;;24.55;15.58;;;;;;;5.35;67.02;98125.31;1807875;77;25770;-83
2021/11/06 02:35:20;;;;;;;25.82;15.18;;;;;;;5.37;67.10;98125.16;1840631;76;28257;-83
2021/11/06 02:37:47;;;;;;;22.05;15.30;;;;;;;5.35;67.19;98126.65;1840807;76;25846;-83
2021/11/06 02:40:14;;;;;;;24.50;15.10;;;;;;;5.33;67.25;98130.48;1826462;77;25683;-82
2021/11/06 02:42:41;;;;;;;24.98;15.35;;;;;;;5.34;67.28;98123.63;1840802;77;25706;-82
2021/11/06 02:45:10;;;;;;;22.27;14.70;;;;;;;5.36;67.36;98131.00;1840893;77;25647;-82
2021/11/06 02:47:37;;;;;;;24.30;14.45;;;;;;;5.35;67.42;98129.33;1840927;77;27369;-82
2021/11/06 02:50:05;;;;;;;23.75;15.38;;;;;;;5.36;67.45;98136.36;1840832;77;25798;-83
2021/11/06 02:52:32;;;;;;;25.92;16.15;;;;;;;5.34;67.46;98134.34;1813137;77;26252;-82
2021/11/06 02:54:58;;;;;;;27.98;16.67;;;;;;;5.30;67.49;98137.02;1793762;77;26376;-82
2021/11/06 02:57:25;;;;;;;27.48;15.98;;;;;;;5.31;67.60;98137.86;1817354;77;25696;-82
2021/11/06 02:59:54;;;;;;;25.80;15.60;;;;;;;5.33;67.59;98136.67;1840948;77;27364;-83
2021/11/06 03:02:20;;;;;;;21.05;13.53;;;;;;;5.35;67.76;98132.50;1820786;77;25683;-82
2021/11/06 03:04:47;;;;;;;21.07;14.35;;;;;;;5.35;67.78;98141.37;1828090;77;25731;-83
2021/11/06 03:07:14;;;;;;;24.57;14.03;;;;;;;5.37;67.87;98144.73;1840943;76;25795;-82
2021/11/06 03:09:41;;;;;;;26.17;15.38;;;;;;;5.33;67.98;98147.88;1841281;77;25272;-83
2021/11/06 03:12:11;;;;;;;22.82;15.43;;;;;;;5.27;67.96;98149.37;1843959;77;27441;-83
2021/11/06 03:14:39;;;;;;;28.47;16.93;;;;;;;5.27;68.10;98149.37;1816511;77;25278;-83
2021/11/06 03:17:06;;;;;;;26.37;16.32;;;;;;;5.25;68.14;98151.87;1830204;77;25831;-83
2021/11/06 03:19:32;;;;;;;23.50;14.40;;;;;;;5.29;68.23;98156.75;1820840;77;25883;-83
2021/11/06 03:22:00;;;;;;;21.95;14.80;;;;;;;5.31;68.25;98157.41;1844096;77;25665;-83
2021/11/06 03:24:26;;;;;;;25.43;13.93;;;;;;;5.35;68.21;98157.44;1824047;76;27456;-83
2021/11/06 03:26:53;;;;;;;23.35;13.58;;;;;;;5.39;68.25;98160.64;1831219;77;26057;-83
2021/11/06 03:29:20;;;;;;;23.00;13.93;;;;;;;5.41;68.20;98159.48;1844150;77;25716;-83
2021/11/06 03:31:47;;;;;;;16.73;11.73;;;;;;;5.45;68.22;98165.34;1829283;77;25668;-82
2021/11/06 03:34:14;;;;;;;19.05;12.68;;;;;;;5.47;68.19;98161.16;1812820;77;25830;-83
2021/11/06 03:36:40;;;;;;;20.50;13.40;;;;;;;5.50;68.17;98167.55;1844190;77;27374;-83
2021/11/06 03:39:07;;;;;;;25.85;14.55;;;;;;;5.53;68.18;98169.91;1812490;77;25728;-83
2021/11/06 03:41:34;;;;;;;24.72;13.83;;;;;;;5.53;68.17;98170.75;1830173;77;25775;-82
2021/11/06 03:44:00;;;;;;;23.55;13.93;;;;;;;5.56;68.19;98173.58;1824397;77;26124;-83
2021/11/06 03:46:27;;;;;;;24.30;14.28;;;;;;;5.60;68.36;98170.43;1844078;77;25710;-83
2021/11/06 03:48:54;;;;;;;23.85;14.38;;;;;;;5.59;68.34;98171.92;1843792;77;27475;-82
2021/11/06 03:51:21;;;;;;;20.12;13.30;;;;;;;5.59;68.26;98173.27;1844013;77;25734;-82
2021/11/06 03:53:48;;;;;;;20.08;13.22;;;;;;;5.57;68.29;98173.92;1844233;77;26699;-82
2021/11/06 03:56:14;;;;;;;21.60;12.75;;;;;;;5.54;68.32;98170.25;1844128;77;25717;-83
2021/11/06 03:58:41;;;;;;;21.90;13.20;;;;;;;5.50;68.37;98175.58;1844279;76;25667;-83
2021/11/06 04:01:08;;;;;;;18.98;10.93;;;;;;;5.43;68.46;98176.20;1844020;77;27517;-82
2021/11/06 04:03:35;;;;;;;19.32;11.65;;;;;;;5.42;68.48;98174.55;1844082;77;25734;-82
2021/11/06 04:06:02;;;;;;;17.95;12.53;;;;;;;5.46;68.49;98167.52;1844125;77;25715;-82
2021/11/06 04:08:28;;;;;;;16.60;11.33;;;;;;;5.49;68.47;98169.38;1844122;77;25730;-83
2021/11/06 04:10:55;;;;;;;22.20;13.22;;;;;;;5.52;68.46;98169.56;1842618;77;25752;-82
2021/11/06 04:13:23;;;;;;;18.80;12.25;;;;;;;5.54;68.46;98171.59;1807658;77;27577;-82
2021/11/06 04:15:49;;;;;;;17.07;11.05;;;;;;;5.57;68.46;98170.75;1840832;77;26012;-82
2021/11/06 04:18:16;;;;;;;17.15;11.12;;;;;;;5.55;68.48;98173.27;1840826;77;25704;-82
2021/11/06 04:20:42;;;;;;;15.58;10.32;;;;;;;5.53;68.52;98168.56;1840785;77;25814;-82
2021/11/06 04:23:09;;;;;;;15.85;10.63;;;;;;;5.48;68.56;98169.54;1840979;77;25817;-82
2021/11/06 04:25:36;;;;;;;16.37;11.25;;;;;;;5.47;68.54;98166.02;1840640;77;27583;-82
2021/11/06 04:28:03;;;;;;;17.48;10.58;;;;;;;5.52;68.63;98168.23;1840769;77;25749;-83
2021/11/06 04:30:30;;;;;;;18.35;12.10;;;;;;;5.50;68.59;98168.88;1840797;77;25221;-83
2021/11/06 04:32:57;;;;;;;17.42;11.50;;;;;;;5.44;68.62;98169.85;1807910;77;25763;-83
2021/11/06 04:35:24;;;;;;;19.45;11.68;;;;;;;5.41;68.75;98176.89;1841037;76;25833;-82
2021/11/06 04:37:50;;;;;;;21.17;11.75;;;;;;;5.38;68.81;98175.02;1841014;77;27478;-83
2021/11/06 04:40:17;;;;;;;21.30;11.93;;;;;;;5.37;68.81;98173.34;1826269;77;25755;-83
2021/11/06 04:42:43;;;;;;;18.73;12.78;;;;;;;5.39;68.87;98176.20;1832927;77;25691;-83
2021/11/06 04:45:12;;;;;;;19.65;12.18;;;;;;;5.35;68.86;98180.69;1835846;77;26354;-83
2021/11/06 04:47:39;;;;;;;21.25;13.08;;;;;;;5.28;68.82;98172.47;1810189;77;25684;-83
2021/11/06 04:50:07;;;;;;;20.12;13.68;;;;;;;5.27;68.92;98177.48;1841167;77;27614;-82
2021/11/06 04:52:35;;;;;;;20.35;12.55;;;;;;;5.20;68.94;98181.77;1840947;77;25913;-82
2021/11/06 04:55:06;;;;;;;18.27;12.13;;;;;;;5.16;69.04;98184.45;1840793;77;25739;-83
2021/11/06 04:57:32;;;;;;;20.70;12.85;;;;;;;5.18;69.04;98185.13;1817046;77;25965;-82
2021/11/06 04:59:59;;;;;;;22.37;13.13;;;;;;;5.17;68.96;98194.16;1801129;77;25702;-82
2021/11/06 05:02:26;;;;;;;15.15;10.70;;;;;;;5.12;68.91;98187.59;1833719;77;27586;-83
2021/11/06 05:04:53;;;;;;;18.23;12.05;;;;;;;5.01;68.89;98190.03;1839380;77;25726;-82
2021/11/06 05:07:19;;;;;;;17.52;11.68;;;;;;;4.94;68.96;98201.03;1808245;77;26212;-82
2021/11/06 05:09:46;;;;;;;14.58;9.83;;;;;;;4.91;69.00;98198.66;1833589;77;26218;-83
2021/11/06 05:12:12;;;;;;;14.80;9.48;;;;;;;4.86;68.77;98199.62;1807646;78;25342;-82
2021/11/06 05:14:39;;;;;;;18.40;12.33;;;;;;;4.67;68.61;98201.50;1830021;78;27473;-82
2021/11/06 05:17:06;;;;;;;18.42;11.85;;;;;;;4.51;68.79;98202.69;1828868;78;26368;-82
2021/11/06 05:19:33;;;;;;;18.25;11.55;;;;;;;4.47;69.02;98209.33;1829955;78;25839;-82
2021/11/06 05:21:59;;;;;;;15.38;9.40;;;;;;;4.43;69.02;98208.47;1808085;78;26559;-82
2021/11/06 05:24:26;;;;;;;14.87;9.60;;;;;;;4.41;69.04;98219.31;1830467;78;25711;-82
2021/11/06 05:26:52;;;;;;;15.48;8.78;;;;;;;4.36;68.93;98226.94;1822617;78;27417;-82
2021/11/06 05:29:20;;;;;;;12.37;8.50;;;;;;;4.30;68.83;98223.55;1815179;78;25755;-83
2021/11/06 05:31:46;;;;;;;13.65;8.80;;;;;;;4.22;68.72;98230.16;1815938;78;25676;-83
2021/11/06 05:34:13;;;;;;;10.32;7.42;;;;;;;4.13;68.63;98225.70;1822392;78;25742;-82
2021/11/06 05:36:39;;;;;;;12.30;7.83;;;;;;;4.04;68.60;98226.61;1830468;78;25692;-82
2021/11/06 05:39:06;;;;;;;10.53;7.08;;;;;;;3.93;68.55;98224.50;1830306;77;28231;-82
2021/11/06 05:41:33;;;;;;;10.58;6.28;;;;;;;3.75;68.65;98230.28;1830367;78;25952;-82
2021/11/06 05:44:01;;;;;;;10.58;5.67;;;;;;;3.71;68.96;98232.92;1830467;78;25676;-82
2021/11/06 05:46:28;;;;;;;8.73;6.55;;;;;;;3.69;68.97;98238.89;1830315;77;25674;-82
2021/11/06 05:48:55;;;;;;;10.72;6.40;;;;;;;3.58;68.89;98241.77;1830276;78;25726;-82
2021/11/06 05:51:21;;;;;;;14.03;7.87;;;;;;;3.50;69.10;98243.81;1830525;78;27961;-82
2021/11/06 05:53:48;;;;;;;12.25;8.30;;;;;;;3.45;69.22;98246.59;1821356;78;25907;-82
2021/11/06 05:56:15;;;;;;;13.32;7.65;;;;;;;3.42;69.16;98249.55;1816744;78;25202;-82
2021/11/06 05:58:42;;;;;;;13.25;7.97;;;;;;;3.39;69.12;98249.83;1830316;78;26623;-81
2021/11/06 06:01:09;;;;;;;8.68;6.58;;;;;;;3.34;69.10;98256.11;1830396;78;25672;-82
2021/11/06 06:03:36;;;;;;;11.30;7.45;;;;;;;3.29;69.04;98254.36;1830491;77;28138;-82
2021/11/06 06:06:03;;;;;;;9.53;7.20;;;;;;;3.23;69.06;98271.31;1830433;78;25778;-82
2021/11/06 06:08:29;;;;;;;10.10;7.50;;;;;;;3.15;68.99;98269.84;1830368;78;25719;-82
2021/11/06 06:10:56;;;;;;;10.82;7.05;;;;;;;3.12;69.22;98272.81;1828178;77;26263;-82
2021/11/06 06:13:22;;;;;;;9.43;6.30;;;;;;;3.10;69.39;98276.60;1794789;79;25752;-82
2021/11/06 06:15:49;;;;;;;9.75;6.00;;;;;;;3.07;69.38;98281.73;1845108;77;28064;-82
2021/11/06 06:18:16;;;;;;;9.43;6.33;;;;;;;2.99;69.47;98288.28;1827035;77;25794;-82
2021/11/06 06:20:42;;;;;;;8.28;5.72;;;;;;;3.01;69.71;98288.98;1835359;77;25718;-83
2021/11/06 06:23:09;;;;;;;8.20;5.90;;;;;;;3.03;69.80;98294.98;1826900;77;25720;-82
2021/11/06 06:25:35;;;;;;;9.98;6.55;;;;;;;3.05;69.86;98295.69;1845214;77;25225;-82
2021/11/06 06:28:04;;;;;;;12.20;7.97;;;;;;;3.07;69.92;98305.73;1844987;77;27519;-83
2021/11/06 06:30:33;;;;;;;16.90;10.70;;;;;;;3.03;69.92;98306.16;1845023;77;25769;-82
2021/11/06 06:33:00;;;;;;;19.23;9.73;;;;;;;3.01;70.09;98305.48;1820042;77;25741;-82
2021/11/06 06:35:29;;;;;;;13.10;10.30;;;;;;;3.05;70.29;98305.03;1845018;77;25873;-82
2021/11/06 06:37:58;;;;;;;24.67;15.32;;;;;;;3.09;70.35;98309.59;1821725;77;25679;-82
2021/11/06 06:40:25;;;;;;;27.07;16.57;;;;;;;3.09;70.44;98310.44;1845194;77;28271;-82
2021/11/06 06:42:52;;;;;;;31.10;18.90;;;;;;;3.16;70.59;98312.03;1845030;77;26451;-83
2021/11/06 06:45:19;;;;;;;42.45;22.25;;;;;;;3.23;70.67;98318.01;1845083;77;25668;-83
2021/11/06 06:47:46;;;;;;;58.38;29.02;;;;;;;3.31;70.72;98328.44;1845076;77;25780;-82
2021/11/06 06:50:13;;;;;;;52.75;26.23;;;;;;;3.39;70.69;98332.56;1844927;77;25714;-82
2021/11/06 06:52:40;;;;;;;52.03;26.12;;;;;;;3.43;70.73;98333.48;1844835;77;27405;-82
2021/11/06 06:55:08;;;;;;;60.67;29.05;;;;;;;3.51;70.78;98338.08;1821605;77;25747;-82
2021/11/06 06:57:35;;;;;;;66.33;28.73;;;;;;;3.57;70.79;98329.52;1844994;77;25284;-82
2021/11/06 07:00:09;;;;;;;68.78;29.80;;;;;;;3.66;70.83;98335.80;1845041;77;26706;-82
2021/11/06 07:02:35;;;;;;;53.28;26.87;;;;;;;3.75;70.86;98335.76;1845055;77;25876;-83
2021/11/06 07:05:03;;;;;;;51.37;22.50;;;;;;;3.83;70.94;98331.88;1844897;77;27353;-82
2021/11/06 07:07:29;;;;;;;40.52;20.35;;;;;;;3.91;70.93;98331.14;1844970;77;25885;-82
2021/11/06 07:09:56;;;;;;;52.20;26.30;;;;;;;3.97;70.94;98331.41;1845105;77;25764;-82
2021/11/06 07:12:27;;;;;;;84.25;32.35;;;;;;;4.06;70.88;98335.51;1845994;77;25702;-82
2021/11/06 07:14:54;;;;;;;88.30;38.90;;;;;;;4.14;70.88;98332.93;1846855;77;25798;-82
2021/11/06 07:17:20;;;;;;;79.75;34.35;;;;;;;4.24;71.10;98336.39;1823432;77;28108;-82
2021/11/06 07:19:47;;;;;;;80.83;36.28;;;;;;;4.34;71.11;98333.19;1846723;77;25841;-83
2021/11/06 07:22:14;;;;;;;94.75;40.88;;;;;;;4.42;71.02;98338.62;1846903;77;25766;-82
2021/11/06 07:24:41;;;;;;;91.20;44.15;;;;;;;4.51;70.93;98336.38;1846801;77;25726;-83
2021/11/06 07:27:09;;;;;;;106.75;49.38;;;;;;;4.61;70.89;98337.14;1846859;76;25715;-83
2021/11/06 07:29:37;;;;;;;131.45;58.35;;;;;;;4.69;70.92;98332.40;1846907;77;27409;-83
2021/11/06 07:32:05;;;;;;;124.27;55.05;;;;;;;4.78;70.96;98327.95;1840838;76;25766;-83
2021/11/06 07:34:31;;;;;;;95.22;42.62;;;;;;;4.85;70.88;98322.33;1846887;76;25738;-83
2021/11/06 07:36:58;;;;;;;85.80;39.35;;;;;;;4.94;70.91;98324.95;1840474;77;25737;-83
2021/11/06 07:39:26;;;;;;;83.97;38.28;;;;;;;5.04;70.90;98328.38;1813606;77;25211;-83
2021/11/06 07:41:54;;;;;;;66.57;27.93;;;;;;;5.14;70.99;98326.95;1846752;76;28249;-82
2021/11/06 07:44:20;;;;;;;39.35;19.60;;;;;;;5.22;70.92;98325.66;1846606;77;26570;-83
2021/11/06 07:46:47;;;;;;;30.75;17.00;;;;;;;5.32;70.74;98324.23;1846970;77;25761;-83
2021/11/06 07:49:14;;;;;;;25.72;14.90;;;;;;;5.40;70.56;98333.19;1846796;77;26279;-83
2021/11/06 07:51:40;;;;;;;27.13;14.30;;;;;;;5.52;70.47;98330.24;1846533;77;26372;-83
2021/11/06 07:54:07;;;;;;;25.17;14.70;;;;;;;5.62;70.47;98336.33;1846745;77;28062;-83
2021/11/06 07:56:36;;;;;;;22.15;13.40;;;;;;;5.71;70.39;98330.86;1846646;76;25801;-82
2021/11/06 07:59:02;;;;;;;57.43;19.30;;;;;;;5.80;70.30;98335.76;1846818;77;25753;-83
2021/11/06 08:01:30;;;;;;;67.58;22.77;;;;;;;5.92;70.27;98339.04;1846814;77;26616;-83
2021/11/06 08:03:56;;;;;;;64.60;23.73;;;;;;;6.00;70.19;98339.95;1828823;77;25701;-83
2021/11/06 08:06:23;;;;;;;56.85;22.32;;;;;;;6.09;70.11;98341.66;1832299;77;27330;-83
2021/11/06 08:08:50;;;;;;;30.88;15.43;;;;;;;6.21;70.08;98340.03;1823339;77;25922;-83
2021/11/06 08:11:17;;;;;;;30.32;15.32;;;;;;;6.28;69.79;98334.38;1846686;77;25668;-83
2021/11/06 08:13:43;;;;;;;23.35;13.10;;;;;;;6.37;69.63;98337.42;1846961;77;25820;-83
2021/11/06 08:16:10;;;;;;;18.35;11.20;;;;;;;6.45;69.50;98334.75;1846784;77;26360;-83
2021/11/06 08:18:36;;;;;;;17.32;10.58;;;;;;;6.55;69.56;98327.91;1846859;77;27335;-83
2021/11/06 08:21:03;;;;;;;14.25;9.58;;;;;;;6.63;69.36;98328.79;1846896;77;25827;-83
2021/11/06 08:23:30;;;;;;;17.65;9.85;;;;;;;6.72;69.29;98329.64;1813508;77;25736;-83
2021/11/06 08:25:56;;;;;;;18.60;10.00;;;;;;;6.82;69.12;98337.88;1846776;77;25666;-83
2021/11/06 08:28:23;;;;;;;24.82;13.22;;;;;;;6.92;69.05;98343.59;1846800;77;25643;-83
2021/11/06 08:30:49;;;;;;;21.15;11.97;;;;;;;7.01;68.99;98343.42;1811085;77;27334;-83
2021/11/06 08:33:16;;;;;;;21.07;10.93;;;;;;;7.11;68.78;98337.92;1816503;77;25774;-84
2021/11/06 08:35:43;;;;;;;16.30;9.65;;;;;;;7.23;68.76;98338.77;1846749;77;26221;-83
2021/11/06 08:38:11;;;;;;;14.50;8.58;;;;;;;7.34;68.52;98337.59;1846759;77;25711;-83
2021/11/06 08:40:39;;;;;;;15.20;8.23;;;;;;;7.39;68.28;98343.27;1846746;77;25890;-83
2021/11/06 08:43:06;;;;;;;21.85;11.93;;;;;;;7.49;67.99;98343.94;1846785;77;27444;-84
2021/11/06 08:45:33;;;;;;;37.28;19.50;;;;;;;7.58;67.72;98345.63;1846750;77;25842;-83
2021/11/06 08:47:59;;;;;;;29.20;15.75;;;;;;;7.69;67.45;98349.81;1846842;77;25711;-84
2021/11/06 08:50:29;;;;;;;17.23;10.43;;;;;;;7.78;67.29;98356.00;1846787;77;25817;-84
2021/11/06 08:52:57;;;;;;;13.80;7.85;;;;;;;7.86;67.11;98354.13;1821465;77;25687;-83
2021/11/06 08:55:25;;;;;;;16.73;8.50;;;;;;;7.95;66.87;98357.16;1846644;76;27435;-83
2021/11/06 08:57:52;;;;;;;9.70;6.35;;;;;;;8.03;66.54;98356.29;1846576;77;25770;-86
2021/11/06 09:00:31;;;;;;;8.78;6.33;;;;;;;8.11;66.11;98357.59;1846745;76;26411;-83
2021/11/06 09:02:55;;;;;;;9.30;5.85;;;;;;;8.21;65.86;98362.27;1846100;77;26389;-83
2021/11/06 09:05:21;;;;;;;10.82;7.80;;;;;;;8.34;65.73;98362.26;1846866;77;25857;-83
2021/11/06 09:07:48;;;;;;;28.38;16.32;;;;;;;8.44;65.28;98365.10;1846805;77;27511;-83
2021/11/06 09:10:19;;;;;;;12.40;8.15;;;;;;;8.55;64.92;98367.91;1846617;76;25221;-83
2021/11/06 09:12:47;;;;;;;7.53;4.15;;;;;;;8.68;64.72;98370.04;1846364;76;26499;-84
2021/11/06 09:15:14;;;;;;;5.42;3.42;;;;;;;8.79;64.14;98362.91;1846362;77;25893;-85
2021/11/06 09:17:41;;;;;;;2.52;2.08;;;;;;;8.86;63.57;98370.09;1846862;77;25757;-83
2021/11/06 09:20:09;;;;;;;7.17;3.47;;;;;;;8.96;63.29;98368.52;1844799;77;28101;-84
2021/11/06 09:22:37;;;;;;;18.50;8.40;;;;;;;9.01;62.27;98366.98;1816835;77;25904;-84
2021/11/06 09:25:06;;;;;;;10.75;4.97;;;;;;;9.12;62.27;98371.63;1814816;77;25837;-83
2021/11/06 09:27:33;;;;;;;5.03;3.00;;;;;;;9.19;62.14;98377.45;1813794;77;26427;-83
2021/11/06 09:30:00;;;;;;;3.58;2.77;;;;;;;9.27;61.41;98374.72;1846898;76;25643;-84
2021/11/06 09:32:26;;;;;;;3.75;2.55;;;;;;;9.25;61.24;98371.87;1803588;77;27419;-83
2021/11/06 09:34:53;;;;;;;3.58;2.37;;;;;;;9.32;61.23;98370.12;1814956;76;25738;-84
2021/11/06 09:37:19;;;;;;;4.33;2.83;;;;;;;9.50;60.38;98361.23;1846982;77;25709;-84
2021/11/06 09:39:46;;;;;;;6.58;3.80;;;;;;;9.62;60.77;98365.17;1846897;77;26375;-85
2021/11/06 09:42:13;;;;;;;6.83;4.17;;;;;;;9.97;60.49;98361.47;1846977;77;25747;-84
2021/11/06 09:44:40;;;;;;;6.12;3.95;;;;;;;10.36;60.17;98362.08;1847022;77;27412;-85
2021/11/06 09:47:12;;;;;;;6.35;4.03;;;;;;;10.57;59.43;98365.87;1846879;77;25757;-85
2021/11/06 09:49:40;;;;;;;5.72;3.00;;;;;;;10.68;58.63;98355.42;1847024;77;25716;-85
2021/11/06 09:52:08;;;;;;;8.78;4.80;;;;;;;10.81;58.56;98350.19;1846680;76;25904;-85
2021/11/06 09:54:35;;;;;;;4.53;2.90;;;;;;;11.00;58.45;98349.23;1845718;76;25671;-86
2021/11/06 09:57:02;;;;;;;2.98;2.10;;;;;;;11.24;57.93;98353.44;1799735;77;27457;-87
2021/11/06 09:59:28;;;;;;;2.45;2.00;;;;;;;11.32;57.32;98345.22;1830204;77;25709;-86
2021/11/06 10:01:55;;;;;;;7.10;3.30;;;;;;;11.36;57.00;98349.19;1818568;77;25760;-87
2021/11/06 10:04:22;;;;;;;7.03;2.60;;;;;;;11.34;56.74;98346.70;1846853;77;25893;-87
2021/11/06 10:06:49;;;;;;;4.80;2.55;;;;;;;11.43;57.12;98349.59;1846864;76;25719;-88
2021/11/06 10:09:17;;;;;;;1.92;1.82;;;;;;;11.87;57.24;98341.25;1846723;77;27474;-85
2021/11/06 10:11:50;;;;;;;2.22;2.00;;;;;;;11.89;55.94;98340.54;1846456;76;25869;-86
2021/11/06 10:14:21;;;;;;;2.55;1.80;;;;;;;11.59;53.48;98340.90;1846628;76;25675;-88
2021/11/06 10:16:56;;;;;;;3.80;2.02;;;;;;;11.15;54.04;98343.27;1846905;77;25762;-88
2021/11/06 10:19:49;;;;;;;3.22;2.10;;;;;;;10.85;54.26;98339.84;1846824;77;25494;-85
2021/11/06 10:22:17;;;;;;;5.45;2.30;;;;;;;10.50;54.50;98335.27;1845335;77;27471;-85
2021/11/06 10:24:54;;;;;;;2.27;2.00;;;;;;;10.35;54.84;98334.77;1844681;77;25221;-85
2021/11/06 10:27:32;;;;;;;2.85;2.02;;;;;;;10.39;55.14;98325.25;1817069;77;26331;-85
2021/11/06 10:30:04;;;;;;;2.90;1.98;;;;;;;10.39;55.13;98327.94;1830879;77;26502;-84
2021/11/06 10:32:33;;;;;;;3.35;2.40;;;;;;;10.17;54.23;98320.77;1815426;77;25777;-84
2021/11/06 10:35:20;;;;;;;2.85;2.30;;;;;;;9.97;54.73;98316.45;1837112;77;27566;-85
2021/11/06 10:37:58;;;;;;;6.67;3.87;;;;;;;9.99;54.76;98320.31;1845745;76;25747;-85
2021/11/06 10:40:30;;;;;;;3.08;2.33;;;;;;;10.11;54.95;98313.44;1845835;77;25775;-84
2021/11/06 10:42:56;;;;;;;4.12;2.72;;;;;;;10.44;54.96;98305.80;1846086;77;26248;-84
2021/11/06 10:45:33;;;;;;;5.03;2.70;;;;;;;10.63;54.52;98307.89;1823130;77;26446;-84
2021/11/06 10:48:07;;;;;;;3.08;2.45;;;;;;;10.90;54.45;98299.58;1846585;77;27422;-84
2021/11/06 10:51:02;;;;;;;7.53;3.55;;;;;;;11.40;54.72;98293.20;1809432;77;25731;-85
2021/11/06 10:53:36;;;;;;;6.97;4.33;;;;;;;11.85;53.89;98287.85;1834063;77;25770;-84
2021/11/06 10:56:08;;;;;;;12.43;6.05;;;;;;;12.12;53.44;98284.80;1834528;76;25753;-85
2021/11/06 10:58:36;;;;;;;5.12;3.33;;;;;;;12.54;53.01;98279.70;1832355;77;25268;-85
2021/11/06 11:01:07;;;;;;;5.50;3.12;;;;;;;13.04;52.49;98274.00;1831500;77;27567;-86
2021/11/06 11:03:40;;;;;;;4.62;2.72;;;;;;;13.42;51.90;98271.02;1830395;77;25624;-85
2021/11/06 11:06:14;;;;;;;3.47;2.98;;;;;;;13.70;51.30;98267.58;1846851;77;25799;-86
2021/11/06 11:08:47;;;;;;;8.93;5.22;;;;;;;14.09;50.86;98265.84;1845850;77;25720;-85
2021/11/06 11:11:18;;;;;;;4.78;3.08;;;;;;;14.46;50.56;98262.94;1846605;76;25661;-85
2021/11/06 11:13:50;;;;;;;4.70;2.75;;;;;;;14.82;49.85;98258.80;1844896;77;27402;-86
2021/11/06 11:16:18;;;;;;;3.92;2.40;;;;;;;15.17;49.29;98256.48;1845920;76;25745;-86
2021/11/06 11:18:51;;;;;;;3.72;2.62;;;;;;;15.48;47.80;98251.83;1846798;77;25723;-88
2021/11/06 11:21:25;;;;;;;5.35;2.90;;;;;;;15.53;47.58;98248.98;1846824;76;26660;-87
2021/11/06 11:23:56;;;;;;;4.97;3.22;;;;;;;15.67;47.58;98246.48;1846667;77;25749;-87
2021/11/06 11:26:27;;;;;;;8.53;3.77;;;;;;;15.94;47.66;98238.34;1815296;77;28236;-86
2021/11/06 11:28:54;;;;;;;4.67;3.92;;;;;;;16.16;47.08;98247.76;1813711;77;25831;-86
2021/11/06 11:31:23;;;;;;;4.40;2.70;;;;;;;16.36;46.58;98239.87;1823704;77;26253;-86